Admiral Hornblower — WSQ7555 — position and weather

sailwx.info

Track history (hours):
 
Tides and Currents Weather Stations Pressure Air Temp Water Temp Dewpoint Dewpoint Depression Visibility Wind Speed Wind Dir Waves Ship Positions

Admiral Hornblower

Owner: Hornblower Cruises and Events, San Diego, CA. More information available from US FCC via Universal Licensing System and Coast Guard Vessel Documentation Center.

Last reported at 2017-Nov-30 22:26 UTC. Time now 2017-Dec-13 22:34 UTC.
Position N 32°41' W 117°09'.
Warning: this ship's position is 13 days out of date.

Length 46 m; draft 1.8 m.

Type: Passenger vessel. MMSI: 366970120.

Date/timePositionNaut miles runAvg speedWind from/ knotsBaromVisibWave heightAir tempDewpointWater temp
2017-Nov-30 22:26N 32°41' W 117°09'2 4.2
2017-Nov-30 21:54N 32°42' W 117°11'  
2017-Nov-26 21:16N 32°43' W 117°13'1 0.5
2017-Nov-26 18:39N 32°42' W 117°14'3 0.2
2017-Nov-26 04:17N 32°43' W 117°11'1 1.4
2017-Nov-26 03:55N 32°43' W 117°11'2 3.5
2017-Nov-26 03:25N 32°42' W 117°10'3 0.3
2017-Nov-25 18:49N 32°43' W 117°13'2 1.7
2017-Nov-25 17:42N 32°43' W 117°11'2 0.1
2017-Nov-24 23:46N 32°43' W 117°13'  
Track history (hours):
 
Tides and Currents Weather Stations Pressure Air Temp Water Temp Dewpoint Dewpoint Depression Visibility Wind Speed Wind Dir Waves Ship Positions

Admiral Hornblower

Owner: Hornblower Cruises and Events, San Diego, CA. More information available from US FCC via Universal Licensing System and Coast Guard Vessel Documentation Center.

Last reported at 2017-Nov-30 22:26 UTC. Time now 2017-Dec-13 22:34 UTC.
Position N 32°41' W 117°09'.
Warning: this ship's position is 13 days out of date.

Length 46 m; draft 1.8 m.

Type: Passenger vessel. MMSI: 366970120.

Date/timePositionNaut miles runAvg speedWind from/ knotsBaromVisibWave heightAir tempDewpointWater temp
2017-Nov-30 22:26N 32°41' W 117°09'2 4.2
2017-Nov-30 21:54N 32°42' W 117°11'  
2017-Nov-26 21:16N 32°43' W 117°13'1 0.5
2017-Nov-26 18:39N 32°42' W 117°14'3 0.2
2017-Nov-26 04:17N 32°43' W 117°11'1 1.4
2017-Nov-26 03:55N 32°43' W 117°11'2 3.5
2017-Nov-26 03:25N 32°42' W 117°10'3 0.3
2017-Nov-25 18:49N 32°43' W 117°13'2 1.7
2017-Nov-25 17:42N 32°43' W 117°11'2 0.1
2017-Nov-24 23:46N 32°43' W 117°13'  

Dump ship's entire track history